createdAt,value
2023-04-06T00:02:36.223Z,7.88
2023-04-06T00:05:38.997Z,6.78
2023-04-06T00:08:42.630Z,9.38
2023-04-06T00:11:45.442Z,9.98
2023-04-06T00:14:48.266Z,6.47
2023-04-06T00:17:51.230Z,8.77
2023-04-06T00:20:53.992Z,9.23
2023-04-06T00:23:56.963Z,10.27
2023-04-06T00:26:59.792Z,14.68
2023-04-06T00:30:03.348Z,9.30
2023-04-06T00:33:06.374Z,16.27
2023-04-06T00:36:09.288Z,10.23
2023-04-06T00:39:12.345Z,10.23
2023-04-06T00:42:15.606Z,12.27
2023-04-06T00:45:18.559Z,6.72
2023-04-06T00:48:21.517Z,8.73
2023-04-06T00:51:24.420Z,11.45
2023-04-06T00:54:27.365Z,10.43
2023-04-06T00:57:30.999Z,10.13
2023-04-06T01:00:34.770Z,9.88
2023-04-06T01:03:39.387Z,10.40
2023-04-06T01:06:43.268Z,6.68
2023-04-06T01:09:46.080Z,10.50
2023-04-06T01:12:55.741Z,11.48
2023-04-06T01:16:17.549Z,8.05
2023-04-06T01:19:30.514Z,9.90
2023-04-06T01:22:34.143Z,9.23
2023-04-06T01:25:39.402Z,11.48
2023-04-06T01:28:45.648Z,8.68
2023-04-06T01:31:59.702Z,9.50
2023-04-06T01:35:02.612Z,9.57
2023-04-06T01:38:10.282Z,16.40
2023-04-06T01:41:14.125Z,13.38
2023-04-06T01:44:31.638Z,12.48
2023-04-06T01:47:43.420Z,18.42
2023-04-06T01:50:48.653Z,11.05
2023-04-06T01:53:57.107Z,9.43
2023-04-06T01:57:07.951Z,15.20
2023-04-06T02:00:31.009Z,10.70
2023-04-06T02:03:33.893Z,9.35
2023-04-06T02:06:42.910Z,12.32
2023-04-06T02:09:48.541Z,12.00
2023-04-06T02:13:00.138Z,8.38
2023-04-06T02:16:04.192Z,12.20
2023-04-06T02:19:07.872Z,8.57
2023-04-06T02:22:11.562Z,10.50
2023-04-06T02:25:14.451Z,8.80
2023-04-06T02:28:17.430Z,9.82
2023-04-06T02:31:20.235Z,11.95
2023-04-06T02:34:26.464Z,14.18
2023-04-06T02:37:30.692Z,13.93
2023-04-06T02:40:35.639Z,12.40
2023-04-06T02:43:49.516Z,13.45
2023-04-06T02:47:02.197Z,15.68
2023-04-06T02:50:06.423Z,12.93
2023-04-06T02:53:14.404Z,13.38
2023-04-06T02:56:17.712Z,15.40
2023-04-06T02:59:25.751Z,15.23
2023-04-06T03:02:40.960Z,13.02
2023-04-06T03:05:50.905Z,15.55
2023-04-06T03:09:00.857Z,19.33
2023-04-06T03:12:10.439Z,16.40
2023-04-06T03:15:36.171Z,14.73
2023-04-06T03:18:48.983Z,13.98
2023-04-06T03:21:51.810Z,17.63
2023-04-06T03:24:56.631Z,16.52
2023-04-06T03:27:59.628Z,15.27
2023-04-06T03:31:03.110Z,14.77
2023-04-06T03:34:18.014Z,13.27
2023-04-06T03:37:20.906Z,18.25
2023-04-06T03:40:28.820Z,16.10
2023-04-06T03:43:31.722Z,16.92
2023-04-06T03:46:34.582Z,18.98
2023-04-06T03:49:38.616Z,20.10
2023-04-06T03:52:45.012Z,17.55
2023-04-06T03:55:48.349Z,27.58
2023-04-06T03:58:52.046Z,17.42
2023-04-06T04:01:57.354Z,17.08
2023-04-06T04:05:00.173Z,15.00
2023-04-06T04:08:03.195Z,15.40
2023-04-06T04:11:06.784Z,17.80
2023-04-06T04:14:09.901Z,14.82
2023-04-06T04:17:12.731Z,17.38
2023-04-06T04:20:15.843Z,20.92
2023-04-06T04:23:18.572Z,24.00
2023-04-06T04:26:21.386Z,23.52
2023-04-06T04:29:24.383Z,14.65
2023-04-06T04:32:30.105Z,36.25
2023-04-06T04:35:34.961Z,25.70
2023-04-06T04:38:39.799Z,21.08
2023-04-06T04:41:43.176Z,18.48
2023-04-06T04:44:48.632Z,21.58
2023-04-06T04:47:56.891Z,17.90
2023-04-06T04:51:05.316Z,26.40
2023-04-06T04:54:20.542Z,18.13
2023-04-06T04:57:23.469Z,17.90
2023-04-06T05:00:28.569Z,15.93
2023-04-06T05:03:34.669Z,19.17
2023-04-06T05:06:41.839Z,19.95
2023-04-06T05:09:46.839Z,20.35
2023-04-06T05:12:50.930Z,20.90
2023-04-06T05:15:53.777Z,20.35
2023-04-06T05:19:09.354Z,26.33
2023-04-06T05:22:19.061Z,20.92
2023-04-06T05:25:28.527Z,17.20
2023-04-06T05:31:39.228Z,20.95
2023-04-06T05:34:42.214Z,22.48
2023-04-06T05:37:45.545Z,27.38
2023-04-06T05:40:48.806Z,25.20
2023-04-06T05:43:54.832Z,19.30
2023-04-06T05:46:59.610Z,20.92
2023-04-06T05:50:04.671Z,22.75
2023-04-06T05:53:12.556Z,21.58
2023-04-06T05:56:20.220Z,22.13
2023-04-06T05:59:25.261Z,19.67
2023-04-06T06:02:32.228Z,19.52
2023-04-06T06:05:35.319Z,26.60
2023-04-06T06:08:47.145Z,24.00
2023-04-06T06:11:52.780Z,25.40
2023-04-06T06:18:04.828Z,26.80
2023-04-06T06:21:07.989Z,23.23
2023-04-06T06:24:11.351Z,23.25
2023-04-06T06:27:15.799Z,29.50
2023-04-06T06:30:20.442Z,30.10
2023-04-06T06:33:27.355Z,33.42
2023-04-06T06:36:33.234Z,27.27
2023-04-06T06:39:37.794Z,28.67
2023-04-06T06:42:41.122Z,28.10
2023-04-06T06:46:07.793Z,22.63
2023-04-06T06:49:12.817Z,31.45
2023-04-06T06:52:16.042Z,28.45
2023-04-06T06:55:23.022Z,28.33
2023-04-06T06:58:26.224Z,24.98
2023-04-06T07:01:30.002Z,33.47
2023-04-06T07:04:35.402Z,33.58
2023-04-06T07:07:38.310Z,31.10
2023-04-06T07:10:41.226Z,28.27
2023-04-06T07:13:44.451Z,24.02
2023-04-06T07:16:48.343Z,28.85
2023-04-06T07:19:51.838Z,23.63
2023-04-06T07:22:54.755Z,28.20
2023-04-06T07:25:57.540Z,24.13
2023-04-06T07:29:00.529Z,21.65
2023-04-06T07:32:04.280Z,23.05
2023-04-06T07:35:08.413Z,24.35
2023-04-06T07:38:11.875Z,21.77
2023-04-06T07:41:16.242Z,23.25
2023-04-06T07:44:19.648Z,24.48
2023-04-06T07:47:24.879Z,26.70
2023-04-06T07:50:27.886Z,24.80
2023-04-06T07:53:32.467Z,19.90
2023-04-06T07:56:35.336Z,27.65
2023-04-06T07:59:38.515Z,22.63
2023-04-06T08:02:41.831Z,25.27
2023-04-06T08:05:44.537Z,25.67
2023-04-06T08:08:47.393Z,21.52
2023-04-06T08:11:50.433Z,20.10
2023-04-06T08:14:53.519Z,22.13
2023-04-06T08:17:58.541Z,21.95
2023-04-06T08:21:01.389Z,24.23
2023-04-06T08:24:04.884Z,17.27
2023-04-06T08:27:08.083Z,20.23
2023-04-06T08:30:11.407Z,19.52
2023-04-06T08:33:14.405Z,15.77
2023-04-06T08:36:18.312Z,25.90
2023-04-06T08:39:26.723Z,18.17
2023-04-06T08:42:33.815Z,16.83
2023-04-06T08:45:42.118Z,17.38
2023-04-06T08:48:45.565Z,17.77
2023-04-06T08:51:48.766Z,16.15
2023-04-06T08:54:51.787Z,12.20
2023-04-06T08:57:56.502Z,17.92
2023-04-06T09:01:00.842Z,19.33
2023-04-06T09:04:09.515Z,14.30
2023-04-06T09:07:12.574Z,10.98
2023-04-06T09:10:16.977Z,9.95
2023-04-06T09:13:24.050Z,14.73
2023-04-06T09:16:27.323Z,16.77
2023-04-06T09:19:30.316Z,14.50
2023-04-06T09:22:43.529Z,17.00
2023-04-06T09:25:46.499Z,12.05
2023-04-06T09:28:54.990Z,16.95
2023-04-06T09:32:08.493Z,9.48
2023-04-06T09:35:11.849Z,16.60
2023-04-06T09:38:14.870Z,12.60
2023-04-06T09:41:30.083Z,8.77
2023-04-06T09:44:33.082Z,19.08
2023-04-06T09:47:38.953Z,10.10
2023-04-06T09:50:42.118Z,13.27
2023-04-06T09:53:46.872Z,16.80
2023-04-06T09:56:58.733Z,11.63
2023-04-06T10:00:15.844Z,15.00
2023-04-06T10:03:31.768Z,12.68
2023-04-06T10:06:36.704Z,9.60
2023-04-06T10:09:39.858Z,9.52
2023-04-06T10:12:43.371Z,9.90
2023-04-06T10:15:46.479Z,9.90
2023-04-06T10:18:53.671Z,9.57
2023-04-06T10:24:59.730Z,9.38
2023-04-06T10:28:06.709Z,13.30
2023-04-06T10:31:09.452Z,10.65
2023-04-06T10:34:12.458Z,10.80
2023-04-06T10:37:16.278Z,10.73
2023-04-06T10:40:21.366Z,12.75
2023-04-06T10:43:24.435Z,12.45
2023-04-06T10:46:29.023Z,11.90
2023-04-06T10:49:32.544Z,11.68
2023-04-06T10:52:35.949Z,16.05
2023-04-06T10:55:41.818Z,13.90
2023-04-06T10:58:49.677Z,14.40
2023-04-06T11:01:52.845Z,11.32
2023-04-06T11:04:57.925Z,9.70
2023-04-06T11:08:00.883Z,16.40
2023-04-06T11:11:10.692Z,12.15
2023-04-06T11:14:13.634Z,11.20
2023-04-06T11:17:16.662Z,16.38
2023-04-06T11:20:20.962Z,30.38
2023-04-06T11:23:25.901Z,18.15
2023-04-06T11:26:28.973Z,12.65
2023-04-06T11:29:33.398Z,13.57
2023-04-06T11:32:47.139Z,12.75
2023-04-06T11:35:52.460Z,16.90
2023-04-06T11:38:55.325Z,22.73
2023-04-06T11:42:05.558Z,14.77
2023-04-06T11:45:10.484Z,11.85
2023-04-06T11:48:21.095Z,13.45
2023-04-06T11:51:28.649Z,14.30
2023-04-06T11:54:39.353Z,16.23
2023-04-06T11:57:43.004Z,13.90
2023-04-06T12:00:47.699Z,22.13
2023-04-06T12:03:51.811Z,15.00
2023-04-06T12:06:54.842Z,18.48
2023-04-06T12:09:57.997Z,19.85
2023-04-06T12:13:00.912Z,20.42
2023-04-06T12:16:03.980Z,18.45
2023-04-06T12:19:06.858Z,24.52
2023-04-06T12:22:09.741Z,20.20
2023-04-06T12:25:13.872Z,19.77
2023-04-06T12:28:16.977Z,15.77
2023-04-06T12:31:21.359Z,19.45
2023-04-06T12:34:24.322Z,19.77
2023-04-06T12:37:28.412Z,17.10
2023-04-06T12:40:31.477Z,18.17
2023-04-06T12:43:34.694Z,21.48
2023-04-06T12:46:40.882Z,17.03
2023-04-06T12:49:44.217Z,19.98
2023-04-06T12:52:47.222Z,20.88
2023-04-06T12:55:49.921Z,16.17
2023-04-06T12:58:53.838Z,16.58
2023-04-06T13:01:56.767Z,16.58
2023-04-06T13:04:59.723Z,16.83
2023-04-06T13:08:02.496Z,16.80
2023-04-06T13:11:06.377Z,19.02
2023-04-06T13:14:09.254Z,16.73
2023-04-06T13:17:12.456Z,14.68
2023-04-06T13:20:15.877Z,23.52
2023-04-06T13:23:18.711Z,21.80
2023-04-06T13:26:22.822Z,14.70
2023-04-06T13:29:26.015Z,20.58
2023-04-06T13:32:29.113Z,16.30
2023-04-06T13:35:31.842Z,22.30
2023-04-06T13:38:34.963Z,14.75
2023-04-06T13:41:37.944Z,16.83
2023-04-06T13:44:40.794Z,19.23
2023-04-06T13:47:43.769Z,18.17
2023-04-06T13:50:47.224Z,15.93
2023-04-06T13:53:53.816Z,24.38
2023-04-06T13:56:58.273Z,19.40
2023-04-06T14:00:02.891Z,17.45
2023-04-06T14:03:08.211Z,25.15
2023-04-06T14:06:20.679Z,24.58
2023-04-06T14:09:31.299Z,17.83
2023-04-06T14:12:34.177Z,20.85
2023-04-06T14:15:37.378Z,19.92
2023-04-06T14:18:40.219Z,19.63
2023-04-06T14:21:44.990Z,35.53
2023-04-06T14:24:48.321Z,17.25
2023-04-06T14:27:51.921Z,27.83
2023-04-06T14:30:54.824Z,15.45
2023-04-06T14:33:58.429Z,16.23
2023-04-06T14:37:01.313Z,17.70
2023-04-06T14:40:04.969Z,19.88
2023-04-06T14:43:07.795Z,15.23
2023-04-06T14:46:10.843Z,25.08
2023-04-06T14:49:14.297Z,29.88
2023-04-06T14:52:17.597Z,22.70
2023-04-06T14:55:20.352Z,17.33
2023-04-06T14:58:24.309Z,17.25
2023-04-06T15:01:27.061Z,20.08
2023-04-06T15:07:34.122Z,34.33
2023-04-06T15:10:37.280Z,20.45
2023-04-06T15:13:41.369Z,24.05
2023-04-06T15:16:44.186Z,17.30
2023-04-06T15:19:46.993Z,16.05
2023-04-06T15:22:49.915Z,19.65
2023-04-06T15:25:54.922Z,16.13
2023-04-06T15:28:57.725Z,22.92
2023-04-06T15:32:00.621Z,19.52
2023-04-06T15:35:10.823Z,18.80
2023-04-06T15:38:13.889Z,18.25
2023-04-06T15:41:16.888Z,21.33
2023-04-06T15:44:20.483Z,15.90
2023-04-06T15:47:24.428Z,17.08
2023-04-06T15:50:28.420Z,17.15
2023-04-06T15:53:31.556Z,15.10
2023-04-06T15:56:34.613Z,17.90
2023-04-06T15:59:37.515Z,21.70
2023-04-06T16:02:40.536Z,16.35
2023-04-06T16:05:48.888Z,21.92
2023-04-06T16:08:59.239Z,17.33
2023-04-06T16:12:02.085Z,23.77
2023-04-06T16:15:05.406Z,16.90
2023-04-06T16:18:08.154Z,19.42
2023-04-06T16:21:18.592Z,19.73
2023-04-06T16:24:22.410Z,18.10
2023-04-06T16:27:25.162Z,30.45
2023-04-06T16:30:30.508Z,22.17
2023-04-06T16:33:33.229Z,17.73
2023-04-06T16:36:36.072Z,21.48
2023-04-06T16:39:38.876Z,22.13
2023-04-06T16:42:45.031Z,23.42
2023-04-06T16:45:51.733Z,25.05
2023-04-06T16:48:55.179Z,19.20
2023-04-06T16:52:02.194Z,25.20
2023-04-06T16:55:05.709Z,35.33
2023-04-06T16:58:08.887Z,26.35
2023-04-06T17:01:41.445Z,28.23
2023-04-06T17:04:44.906Z,25.55
2023-04-06T17:07:47.726Z,27.50
2023-04-06T17:10:59.251Z,24.20
2023-04-06T17:14:05.727Z,26.10
2023-04-06T17:17:08.748Z,30.33
2023-04-06T17:20:11.807Z,27.55
2023-04-06T17:23:15.668Z,27.50
2023-04-06T17:26:18.604Z,31.63
2023-04-06T17:29:21.385Z,30.45
2023-04-06T17:32:24.117Z,33.60
2023-04-06T17:35:27.270Z,32.35
2023-04-06T17:38:30.166Z,33.65
2023-04-06T17:41:35.017Z,28.48
2023-04-06T17:44:38.928Z,31.27
2023-04-06T17:47:41.820Z,32.85
2023-04-06T17:50:45.260Z,32.00
2023-04-06T17:53:48.258Z,29.30
2023-04-06T17:56:52.217Z,33.47
2023-04-06T17:59:55.035Z,32.05
2023-04-06T18:02:57.892Z,36.53
2023-04-06T18:06:15.274Z,34.78
2023-04-06T18:09:18.298Z,31.40
2023-04-06T18:12:21.072Z,35.42
2023-04-06T18:15:24.172Z,35.58
2023-04-06T18:18:28.652Z,36.42
2023-04-06T18:21:34.846Z,33.33
2023-04-06T18:24:42.541Z,39.63
2023-04-06T18:27:46.378Z,35.58
2023-04-06T18:30:49.356Z,37.53
2023-04-06T18:33:53.859Z,36.72
2023-04-06T18:36:57.538Z,37.60
2023-04-06T18:40:01.347Z,36.78
2023-04-06T18:43:07.287Z,32.42
2023-04-06T18:46:15.724Z,36.60
2023-04-06T18:49:18.759Z,32.65
2023-04-06T18:52:21.652Z,32.05
2023-04-06T18:55:25.856Z,35.83
2023-04-06T18:58:28.865Z,30.83
2023-04-06T19:01:32.804Z,36.58
2023-04-06T19:04:35.899Z,33.47
2023-04-06T19:07:39.959Z,31.67
2023-04-06T19:10:42.987Z,30.58
2023-04-06T19:13:50.388Z,28.65
2023-04-06T19:16:53.472Z,28.20
2023-04-06T19:19:58.035Z,32.25
2023-04-06T19:23:01.035Z,34.80
2023-04-06T19:26:03.898Z,35.03
2023-04-06T19:29:07.130Z,30.30
2023-04-06T19:32:12.018Z,33.25
2023-04-06T19:35:14.993Z,32.47
2023-04-06T19:38:17.855Z,33.38
2023-04-06T19:41:22.042Z,36.35
2023-04-06T19:44:27.112Z,31.77
2023-04-06T19:47:30.348Z,40.72
2023-04-06T19:50:33.322Z,37.08
2023-04-06T19:53:36.981Z,36.03
2023-04-06T19:56:40.190Z,34.38
2023-04-06T19:59:43.079Z,34.80
2023-04-06T20:02:46.289Z,38.20
2023-04-06T20:05:49.469Z,31.92
2023-04-06T20:08:52.350Z,32.67
2023-04-06T20:11:55.148Z,30.70
2023-04-06T20:14:58.286Z,35.55
2023-04-06T20:18:01.224Z,35.50
2023-04-06T20:21:04.036Z,29.10
2023-04-06T20:24:07.362Z,37.47
2023-04-06T20:27:10.192Z,31.20
2023-04-06T20:30:15.338Z,29.85
2023-04-06T20:33:18.253Z,37.85
2023-04-06T20:36:22.284Z,36.05
2023-04-06T20:39:27.748Z,33.88
2023-04-06T20:42:30.612Z,36.78
2023-04-06T20:45:38.879Z,34.95
2023-04-06T20:48:41.721Z,30.40
2023-04-06T20:51:46.195Z,32.17
2023-04-06T20:54:51.026Z,27.63
2023-04-06T20:57:53.973Z,28.88
2023-04-06T21:00:58.148Z,30.35
2023-04-06T21:04:02.656Z,29.77
2023-04-06T21:07:07.555Z,24.25
2023-04-06T21:10:10.813Z,28.55
2023-04-06T21:13:13.696Z,36.80
2023-04-06T21:16:16.524Z,31.52
2023-04-06T21:19:19.510Z,29.38
2023-04-06T21:22:23.541Z,31.75
2023-04-06T21:25:26.328Z,25.75
2023-04-06T21:28:29.391Z,24.15
2023-04-06T21:31:32.402Z,25.95
2023-04-06T21:34:35.175Z,31.02
2023-04-06T21:37:38.168Z,30.70
2023-04-06T21:40:41.147Z,28.80
2023-04-06T21:43:43.984Z,31.58
2023-04-06T21:46:46.796Z,32.10
2023-04-06T21:49:49.621Z,28.05
2023-04-06T21:52:52.361Z,26.80
2023-04-06T21:55:55.146Z,27.88
2023-04-06T21:58:57.923Z,24.48
2023-04-06T22:02:00.764Z,26.10
2023-04-06T22:05:04.657Z,26.88
2023-04-06T22:08:09.536Z,28.50
2023-04-06T22:11:13.907Z,26.47
2023-04-06T22:14:18.163Z,27.65
2023-04-06T22:17:21.105Z,26.88
2023-04-06T22:20:23.913Z,29.75
2023-04-06T22:23:26.771Z,26.75
2023-04-06T22:26:29.482Z,27.27
2023-04-06T22:29:32.194Z,23.70
2023-04-06T22:32:35.125Z,24.67
2023-04-06T22:35:38.373Z,24.60
2023-04-06T22:38:41.258Z,26.05
2023-04-06T22:41:44.070Z,25.48
2023-04-06T22:44:46.820Z,24.60
2023-04-06T22:47:49.553Z,30.05
2023-04-06T22:50:52.415Z,26.23
2023-04-06T22:53:55.235Z,30.20
2023-04-06T22:56:57.892Z,28.92
2023-04-06T23:00:00.999Z,31.35
2023-04-06T23:03:03.881Z,29.33
2023-04-06T23:06:06.918Z,30.55
2023-04-06T23:09:09.699Z,29.30
2023-04-06T23:12:12.353Z,27.95
2023-04-06T23:15:15.082Z,31.52
2023-04-06T23:18:17.831Z,27.10
2023-04-06T23:21:20.602Z,25.08
2023-04-06T23:24:23.696Z,28.10
2023-04-06T23:27:26.476Z,29.33
2023-04-06T23:30:29.223Z,30.25
2023-04-06T23:33:31.823Z,28.85
2023-04-06T23:36:34.618Z,28.35
2023-04-06T23:39:37.384Z,29.40
2023-04-06T23:42:40.151Z,33.75
2023-04-06T23:45:43.199Z,28.77
2023-04-06T23:48:46.036Z,26.88
2023-04-06T23:51:48.747Z,30.38
2023-04-06T23:54:51.488Z,30.52
2023-04-06T23:57:54.164Z,30.50
